createdAt,value
2023-04-17T00:01:51.662Z,36.77
2023-04-17T00:04:22.025Z,38.84
2023-04-17T00:06:49.420Z,40.01
2023-04-17T00:09:16.188Z,40.71
2023-04-17T00:11:42.948Z,38.80
2023-04-17T00:14:09.723Z,37.70
2023-04-17T00:16:36.552Z,37.44
2023-04-17T00:19:03.343Z,37.16
2023-04-17T00:21:31.867Z,36.74
2023-04-17T00:23:58.640Z,36.45
2023-04-17T00:26:25.390Z,36.04
2023-04-17T00:28:52.161Z,36.39
2023-04-17T00:31:19.218Z,36.05
2023-04-17T00:33:46.289Z,36.00
2023-04-17T00:36:13.771Z,35.97
2023-04-17T00:38:40.577Z,36.03
2023-04-17T00:41:07.430Z,35.64
2023-04-17T00:43:34.202Z,35.79
2023-04-17T00:46:01.314Z,35.73
2023-04-17T00:48:28.075Z,35.65
2023-04-17T00:50:55.272Z,35.33
2023-04-17T00:53:22.204Z,35.19
2023-04-17T00:55:48.937Z,35.00
2023-04-17T00:58:15.750Z,35.53
2023-04-17T01:00:42.498Z,35.55
2023-04-17T01:03:09.370Z,35.33
2023-04-17T01:05:38.355Z,35.25
2023-04-17T01:08:05.202Z,37.65
2023-04-17T01:10:31.947Z,38.55
2023-04-17T01:12:58.676Z,40.56
2023-04-17T01:15:25.435Z,40.06
2023-04-17T01:17:52.220Z,38.25
2023-04-17T01:20:19.506Z,37.34
2023-04-17T01:22:46.274Z,36.96
2023-04-17T01:25:13.020Z,36.30
2023-04-17T01:27:39.760Z,36.28
2023-04-17T01:30:06.856Z,36.10
2023-04-17T01:32:33.600Z,36.20
2023-04-17T01:35:00.422Z,35.90
2023-04-17T01:37:27.646Z,36.01
2023-04-17T01:39:55.709Z,35.69
2023-04-17T01:42:22.461Z,35.71
2023-04-17T01:44:49.276Z,35.66
2023-04-17T01:47:16.014Z,35.42
2023-04-17T01:49:42.747Z,35.41
2023-04-17T01:52:09.525Z,35.35
2023-04-17T01:54:36.306Z,35.45
2023-04-17T01:57:03.078Z,35.29
2023-04-17T01:59:29.851Z,35.08
2023-04-17T02:01:59.530Z,35.50
2023-04-17T02:04:26.429Z,35.16
2023-04-17T02:06:53.476Z,35.16
2023-04-17T02:09:20.232Z,35.13
2023-04-17T02:11:46.982Z,34.92
2023-04-17T02:14:13.771Z,35.22
2023-04-17T02:16:45.684Z,35.97
2023-04-17T02:19:12.607Z,37.71
2023-04-17T02:21:39.720Z,38.54
2023-04-17T02:24:06.474Z,40.13
2023-04-17T02:26:33.472Z,38.78
2023-04-17T02:29:00.544Z,37.51
2023-04-17T02:31:27.377Z,36.95
2023-04-17T02:33:54.253Z,36.52
2023-04-17T02:36:21.670Z,36.48
2023-04-17T02:38:48.489Z,36.17
2023-04-17T02:41:15.432Z,35.68
2023-04-17T02:43:42.372Z,35.55
2023-04-17T02:46:09.227Z,35.74
2023-04-17T02:48:36.018Z,35.22
2023-04-17T02:51:03.009Z,35.45
2023-04-17T02:53:29.764Z,35.32
2023-04-17T02:55:56.520Z,35.44
2023-04-17T02:58:23.318Z,35.23
2023-04-17T03:00:50.111Z,35.12
2023-04-17T03:03:17.089Z,35.15
2023-04-17T03:05:44.003Z,34.92
2023-04-17T03:08:11.116Z,35.08
2023-04-17T03:10:37.887Z,35.07
2023-04-17T03:13:04.725Z,34.99
2023-04-17T03:15:31.511Z,34.90
2023-04-17T03:17:58.350Z,34.59
2023-04-17T03:20:25.143Z,35.74
2023-04-17T03:22:51.926Z,37.36
2023-04-17T03:25:18.679Z,37.70
2023-04-17T03:27:45.511Z,39.82
2023-04-17T03:30:12.610Z,39.10
2023-04-17T03:32:39.384Z,37.58
2023-04-17T03:35:06.699Z,36.69
2023-04-17T03:37:33.448Z,36.31
2023-04-17T03:40:00.282Z,36.02
2023-04-17T03:42:27.157Z,35.89
2023-04-17T03:44:55.263Z,35.65
2023-04-17T03:47:22.047Z,35.86
2023-04-17T03:49:48.850Z,35.78
2023-04-17T03:52:15.820Z,35.50
2023-04-17T03:54:42.725Z,34.98
2023-04-17T03:57:10.700Z,35.46
2023-04-17T03:59:37.443Z,35.42
2023-04-17T04:02:04.369Z,34.93
2023-04-17T04:04:31.322Z,34.77
2023-04-17T04:06:58.203Z,34.73
2023-04-17T04:09:25.677Z,35.01
2023-04-17T04:11:52.494Z,34.66
2023-04-17T04:14:19.256Z,34.84
2023-04-17T04:16:46.252Z,34.82
2023-04-17T04:19:13.219Z,34.84
2023-04-17T04:21:41.960Z,34.51
2023-04-17T04:24:09.983Z,34.83
2023-04-17T04:26:37.779Z,34.45
2023-04-17T04:29:04.577Z,34.62
2023-04-17T04:31:31.730Z,36.50
2023-04-17T04:33:58.511Z,37.25
2023-04-17T04:36:29.629Z,39.13
2023-04-17T04:38:59.756Z,38.63
2023-04-17T04:41:26.668Z,37.22
2023-04-17T04:43:56.464Z,36.78
2023-04-17T04:46:23.261Z,36.09
2023-04-17T04:48:50.085Z,35.91
2023-04-17T04:51:18.770Z,35.71
2023-04-17T04:53:45.788Z,35.57
2023-04-17T04:56:12.548Z,35.34
2023-04-17T04:58:39.284Z,35.30
2023-04-17T05:01:06.869Z,35.41
2023-04-17T05:03:34.067Z,34.71
2023-04-17T05:06:00.973Z,35.09
2023-04-17T05:08:27.833Z,34.49
2023-04-17T05:10:54.580Z,35.00
2023-04-17T05:13:21.320Z,34.56
2023-04-17T05:15:48.129Z,34.69
2023-04-17T05:18:15.310Z,34.75
2023-04-17T05:20:42.064Z,34.52
2023-04-17T05:23:08.824Z,34.60
2023-04-17T05:25:35.693Z,34.34
2023-04-17T05:28:02.445Z,34.21
2023-04-17T05:30:29.188Z,34.76
2023-04-17T05:32:56.101Z,36.56
2023-04-17T05:35:22.896Z,36.69
2023-04-17T05:37:49.732Z,39.12
2023-04-17T05:40:16.469Z,38.39
2023-04-17T05:42:43.256Z,37.22
2023-04-17T05:45:10.038Z,36.21
2023-04-17T05:47:38.131Z,35.91
2023-04-17T05:50:04.968Z,35.61
2023-04-17T05:52:31.727Z,35.60
2023-04-17T05:54:58.460Z,35.22
2023-04-17T05:57:25.269Z,35.09
2023-04-17T05:59:52.051Z,35.21
2023-04-17T06:02:18.871Z,34.79
2023-04-17T06:04:45.986Z,35.06
2023-04-17T06:07:13.028Z,34.89
2023-04-17T06:09:40.958Z,34.63
2023-04-17T06:12:14.611Z,34.73
2023-04-17T06:14:41.364Z,34.55
2023-04-17T06:17:08.331Z,34.48
2023-04-17T06:19:35.196Z,34.40
2023-04-17T06:22:01.957Z,34.33
2023-04-17T06:24:28.770Z,34.17
2023-04-17T06:26:56.463Z,34.39
2023-04-17T06:29:23.218Z,33.96
2023-04-17T06:31:49.974Z,34.25
2023-04-17T06:34:16.738Z,34.27
2023-04-17T06:36:43.481Z,36.58
2023-04-17T06:39:10.431Z,38.05
2023-04-17T06:41:37.348Z,39.13
2023-04-17T06:44:04.120Z,39.04
2023-04-17T06:46:31.210Z,37.61
2023-04-17T06:48:59.514Z,36.33
2023-04-17T06:51:27.609Z,35.86
2023-04-17T06:53:54.431Z,35.46
2023-04-17T06:56:21.422Z,35.51
2023-04-17T06:58:48.248Z,35.46
2023-04-17T07:01:15.179Z,35.28
2023-04-17T07:03:42.182Z,34.99
2023-04-17T07:06:09.065Z,34.72
2023-04-17T07:08:35.860Z,34.78
2023-04-17T07:11:02.657Z,34.58
2023-04-17T07:13:31.356Z,34.38
2023-04-17T07:15:58.340Z,34.69
2023-04-17T07:18:29.471Z,34.52
2023-04-17T07:20:56.475Z,34.25
2023-04-17T07:23:23.538Z,34.33
2023-04-17T07:25:50.456Z,34.34
2023-04-17T07:28:17.245Z,34.31
2023-04-17T07:30:44.024Z,34.37
2023-04-17T07:33:10.948Z,34.21
2023-04-17T07:35:37.825Z,35.21
2023-04-17T07:38:04.690Z,37.96
2023-04-17T07:40:31.490Z,37.87
2023-04-17T07:42:58.268Z,39.71
2023-04-17T07:45:25.185Z,37.91
2023-04-17T07:47:52.771Z,36.70
2023-04-17T07:50:19.553Z,36.11
2023-04-17T07:52:46.815Z,35.64
2023-04-17T07:55:13.580Z,35.47
2023-04-17T07:57:42.618Z,34.94
2023-04-17T08:00:10.423Z,35.06
2023-04-17T08:02:37.476Z,34.94
2023-04-17T08:05:05.760Z,34.90
2023-04-17T08:07:32.647Z,34.64
2023-04-17T08:09:59.424Z,34.79
2023-04-17T08:12:26.166Z,34.50
2023-04-17T08:14:52.910Z,34.81
2023-04-17T08:17:23.036Z,34.51
2023-04-17T08:19:50.763Z,34.52
2023-04-17T08:22:19.504Z,34.39
2023-04-17T08:24:46.787Z,34.04
2023-04-17T08:27:14.943Z,33.83
2023-04-17T08:29:41.881Z,34.16
2023-04-17T08:32:14.781Z,34.89
2023-04-17T08:34:42.078Z,37.81
2023-04-17T08:37:08.842Z,37.64
2023-04-17T08:39:35.625Z,39.18
2023-04-17T08:42:02.978Z,37.48
2023-04-17T08:44:29.879Z,36.51
2023-04-17T08:46:57.957Z,36.06
2023-04-17T08:49:24.727Z,35.49
2023-04-17T08:51:51.477Z,35.15
2023-04-17T08:54:19.657Z,34.97
2023-04-17T08:56:46.391Z,34.65
2023-04-17T08:59:13.365Z,34.82
2023-04-17T09:01:40.573Z,34.53
2023-04-17T09:04:07.725Z,34.72
2023-04-17T09:06:34.711Z,34.65
2023-04-17T09:09:04.896Z,34.33
2023-04-17T09:11:31.643Z,34.46
2023-04-17T09:13:58.419Z,34.16
2023-04-17T09:16:25.646Z,34.14
2023-04-17T09:18:52.477Z,34.10
2023-04-17T09:21:19.315Z,34.24
2023-04-17T09:23:46.101Z,34.18
2023-04-17T09:26:13.505Z,34.23
2023-04-17T09:28:40.286Z,34.14
2023-04-17T09:31:07.159Z,37.30
2023-04-17T09:33:34.038Z,38.18
2023-04-17T09:36:00.856Z,39.62
2023-04-17T09:38:27.628Z,38.36
2023-04-17T09:40:54.353Z,36.81
2023-04-17T09:43:22.580Z,36.20
2023-04-17T09:45:52.202Z,35.40
2023-04-17T09:48:18.944Z,35.42
2023-04-17T09:50:45.860Z,35.08
2023-04-17T09:53:13.895Z,34.94
2023-04-17T09:55:41.465Z,34.67
2023-04-17T09:58:08.359Z,34.65
2023-04-17T10:00:36.393Z,34.78
2023-04-17T10:03:03.543Z,34.64
2023-04-17T10:05:32.225Z,34.54
2023-04-17T10:07:59.128Z,34.39
2023-04-17T10:10:26.123Z,34.34
2023-04-17T10:12:52.920Z,34.32
2023-04-17T10:15:19.791Z,34.31
2023-04-17T10:17:47.240Z,33.99
2023-04-17T10:20:14.012Z,33.93
2023-04-17T10:22:41.137Z,33.92
2023-04-17T10:25:08.255Z,36.27
2023-04-17T10:27:35.108Z,40.25
2023-04-17T10:30:02.258Z,39.44
2023-04-17T10:32:29.394Z,37.02
2023-04-17T10:34:57.115Z,36.15
2023-04-17T10:37:25.280Z,35.65
2023-04-17T10:39:52.069Z,35.34
2023-04-17T10:42:19.023Z,35.19
2023-04-17T10:44:45.992Z,34.90
2023-04-17T10:47:14.400Z,34.98
2023-04-17T10:49:41.464Z,34.42
2023-04-17T10:52:08.228Z,34.64
2023-04-17T10:54:34.976Z,34.31
2023-04-17T10:57:07.664Z,34.17
2023-04-17T10:59:34.433Z,34.25
2023-04-17T11:02:03.836Z,34.29
2023-04-17T11:04:31.070Z,34.32
2023-04-17T11:06:58.019Z,34.25
2023-04-17T11:09:24.828Z,36.90
2023-04-17T11:11:51.582Z,38.03
2023-04-17T11:14:18.522Z,39.59
2023-04-17T11:16:45.922Z,38.63
2023-04-17T11:19:16.063Z,37.09
2023-04-17T11:21:42.906Z,36.04
2023-04-17T11:24:09.685Z,35.76
2023-04-17T11:26:36.661Z,35.49
2023-04-17T11:29:03.473Z,35.68
2023-04-17T11:31:30.491Z,34.83
2023-04-17T11:33:57.341Z,34.64
2023-04-17T11:36:24.102Z,34.57
2023-04-17T11:38:53.909Z,34.66
2023-04-17T11:41:22.235Z,34.50
2023-04-17T11:43:49.004Z,34.40
2023-04-17T11:46:15.832Z,34.36
2023-04-17T11:48:42.611Z,34.28
2023-04-17T11:51:09.453Z,34.24
2023-04-17T11:53:36.473Z,34.09
2023-04-17T11:56:03.252Z,34.19
2023-04-17T11:58:30.447Z,34.08
2023-04-17T12:00:57.257Z,36.07
2023-04-17T12:03:26.934Z,39.28
2023-04-17T12:05:54.016Z,38.80
2023-04-17T12:08:21.967Z,36.82
2023-04-17T12:10:48.716Z,36.07
2023-04-17T12:13:15.487Z,35.70
2023-04-17T12:15:42.263Z,35.11
2023-04-17T12:18:09.839Z,35.17
2023-04-17T12:20:36.678Z,34.92
2023-04-17T12:23:03.925Z,34.99
2023-04-17T12:25:30.829Z,34.75
2023-04-17T12:27:59.170Z,34.95
2023-04-17T12:30:26.351Z,34.56
2023-04-17T12:32:53.161Z,34.47
2023-04-17T12:35:20.019Z,34.53
2023-04-17T12:37:51.104Z,34.18
2023-04-17T12:40:17.847Z,34.41
2023-04-17T12:42:49.312Z,34.64
2023-04-17T12:45:16.935Z,38.58
2023-04-17T12:47:43.721Z,39.15
2023-04-17T12:50:10.892Z,38.01
2023-04-17T12:52:37.681Z,36.42
2023-04-17T12:55:04.457Z,35.69
2023-04-17T12:57:31.257Z,35.26
2023-04-17T12:59:58.037Z,35.12
2023-04-17T13:02:24.950Z,34.91
2023-04-17T13:04:53.465Z,34.95
2023-04-17T13:07:20.610Z,34.80
2023-04-17T13:09:47.420Z,34.70
2023-04-17T13:12:15.335Z,34.47
2023-04-17T13:14:42.296Z,34.21
2023-04-17T13:17:09.157Z,34.30
2023-04-17T13:19:36.038Z,34.12
2023-04-17T13:22:02.839Z,34.14
2023-04-17T13:24:29.658Z,34.03
2023-04-17T13:26:59.470Z,34.01
2023-04-17T13:29:26.267Z,35.86
2023-04-17T13:31:53.024Z,39.23
2023-04-17T13:34:19.844Z,39.44
2023-04-17T13:36:46.738Z,37.17
2023-04-17T13:39:13.756Z,35.92
2023-04-17T13:41:40.630Z,35.56
2023-04-17T13:44:07.431Z,34.91
2023-04-17T13:46:34.277Z,34.76
2023-04-17T13:49:01.335Z,34.80
2023-04-17T13:51:28.250Z,34.60
2023-04-17T13:53:55.116Z,34.63
2023-04-17T13:56:23.355Z,34.37
2023-04-17T13:58:52.051Z,34.30
2023-04-17T14:01:18.953Z,34.31
2023-04-17T14:03:46.448Z,34.02
2023-04-17T14:06:13.333Z,34.05
2023-04-17T14:08:41.337Z,33.79
2023-04-17T14:11:09.153Z,34.09
2023-04-17T14:13:35.901Z,34.07
2023-04-17T14:16:02.658Z,38.02
2023-04-17T14:18:29.562Z,38.93
2023-04-17T14:20:56.621Z,37.88
2023-04-17T14:23:23.366Z,36.30
2023-04-17T14:25:50.188Z,35.45
2023-04-17T14:28:18.318Z,35.05
2023-04-17T14:30:45.303Z,35.14
2023-04-17T14:33:12.071Z,34.87
2023-04-17T14:35:40.075Z,34.38
2023-04-17T14:38:06.941Z,34.52
2023-04-17T14:40:33.778Z,34.38
2023-04-17T14:43:00.663Z,34.23
2023-04-17T14:45:27.508Z,34.31
2023-04-17T14:47:54.417Z,34.29
2023-04-17T14:50:21.258Z,34.35
2023-04-17T14:52:47.995Z,34.13
2023-04-17T14:55:14.847Z,34.01
2023-04-17T14:57:41.599Z,33.89
2023-04-17T15:00:08.406Z,34.54
2023-04-17T15:02:38.473Z,37.94
2023-04-17T15:05:05.722Z,40.43
2023-04-17T15:07:32.473Z,38.41
2023-04-17T15:09:59.378Z,36.66
2023-04-17T15:12:26.205Z,35.80
2023-04-17T15:14:53.028Z,35.45
2023-04-17T15:17:19.850Z,35.00
2023-04-17T15:19:46.704Z,34.87
2023-04-17T15:22:13.457Z,34.57
2023-04-17T15:24:40.260Z,34.58
2023-04-17T15:27:07.090Z,34.44
2023-04-17T15:29:33.913Z,34.48
2023-04-17T15:32:01.631Z,34.02
2023-04-17T15:34:28.450Z,34.36
2023-04-17T15:36:55.291Z,33.95
2023-04-17T15:39:23.183Z,34.21
2023-04-17T15:41:50.510Z,34.32
2023-04-17T15:44:17.377Z,34.48
2023-04-17T15:46:44.275Z,37.58
2023-04-17T15:49:11.289Z,37.57
2023-04-17T15:51:39.622Z,38.94
2023-04-17T15:54:08.272Z,37.77
2023-04-17T15:56:35.039Z,36.42
2023-04-17T15:59:01.795Z,35.65
2023-04-17T16:01:28.704Z,35.24
2023-04-17T16:03:55.780Z,35.02
2023-04-17T16:06:22.770Z,35.24
2023-04-17T16:08:49.541Z,35.14
2023-04-17T16:11:16.326Z,34.72
2023-04-17T16:13:43.076Z,34.51
2023-04-17T16:16:10.720Z,34.31
2023-04-17T16:18:37.509Z,34.37
2023-04-17T16:21:04.380Z,34.28
2023-04-17T16:23:31.293Z,34.17
2023-04-17T16:25:58.041Z,34.38
2023-04-17T16:28:24.812Z,34.04
2023-04-17T16:30:51.583Z,34.18
2023-04-17T16:33:18.370Z,33.95
2023-04-17T16:35:45.202Z,36.50
2023-04-17T16:38:11.985Z,36.83
2023-04-17T16:40:38.730Z,37.85
2023-04-17T16:43:05.463Z,38.10
2023-04-17T16:45:32.319Z,36.68
2023-04-17T16:47:59.228Z,35.99
2023-04-17T16:50:26.071Z,35.41
2023-04-17T16:52:52.923Z,35.34
2023-04-17T16:55:19.755Z,35.10
2023-04-17T16:57:47.797Z,34.82
2023-04-17T17:00:14.679Z,34.52
2023-04-17T17:02:41.499Z,34.65
2023-04-17T17:05:08.359Z,34.57
2023-04-17T17:07:35.123Z,34.40
2023-04-17T17:10:01.922Z,34.25
2023-04-17T17:12:28.705Z,33.90
2023-04-17T17:14:55.587Z,33.72
2023-04-17T17:17:22.344Z,33.94
2023-04-17T17:19:49.139Z,33.91
2023-04-17T17:22:15.904Z,33.95
2023-04-17T17:24:42.674Z,34.01
2023-04-17T17:27:09.408Z,36.09
2023-04-17T17:29:36.173Z,38.13
2023-04-17T17:32:02.981Z,40.72
2023-04-17T17:36:57.055Z,37.01
2023-04-17T17:39:23.862Z,35.82
2023-04-17T17:41:50.747Z,35.41
2023-04-17T17:44:17.603Z,35.10
2023-04-17T17:46:44.429Z,34.83
2023-04-17T17:49:11.201Z,34.52
2023-04-17T17:51:37.956Z,34.82
2023-04-17T17:54:04.694Z,34.70
2023-04-17T17:56:31.468Z,34.54
2023-04-17T17:58:58.410Z,34.48
2023-04-17T18:01:25.260Z,34.11
2023-04-17T18:03:52.959Z,34.29
2023-04-17T18:06:20.209Z,33.81
2023-04-17T18:08:47.026Z,33.67
2023-04-17T18:11:13.848Z,33.76
2023-04-17T18:13:40.635Z,33.90
2023-04-17T18:16:07.519Z,33.80
2023-04-17T18:18:34.283Z,33.74
2023-04-17T18:21:01.113Z,33.75
2023-04-17T18:23:27.861Z,37.10
2023-04-17T18:25:54.598Z,37.87
2023-04-17T18:28:21.380Z,40.07
2023-04-17T18:30:48.120Z,38.13
2023-04-17T18:33:14.871Z,36.34
2023-04-17T18:35:41.634Z,36.05
2023-04-17T18:38:08.368Z,35.17
2023-04-17T18:40:36.413Z,34.75
2023-04-17T18:43:05.744Z,34.80
2023-04-17T18:45:32.766Z,34.72
2023-04-17T18:47:59.716Z,34.33
2023-04-17T18:50:27.433Z,34.28
2023-04-17T18:52:54.294Z,34.48
2023-04-17T18:55:21.114Z,34.17
2023-04-17T18:57:48.012Z,33.98
2023-04-17T19:00:14.846Z,33.90
2023-04-17T19:02:41.796Z,33.60
2023-04-17T19:05:08.649Z,33.70
2023-04-17T19:07:35.421Z,33.81
2023-04-17T19:10:02.175Z,33.96
2023-04-17T19:12:30.374Z,33.80
2023-04-17T19:14:57.241Z,33.67
2023-04-17T19:17:25.208Z,33.37
2023-04-17T19:19:52.086Z,33.49
2023-04-17T19:22:18.892Z,36.30
2023-04-17T19:24:49.586Z,37.28
2023-04-17T19:27:16.643Z,39.38
2023-04-17T19:29:43.424Z,38.20
2023-04-17T19:32:10.653Z,36.86
2023-04-17T19:34:37.435Z,35.81
2023-04-17T19:37:04.198Z,35.33
2023-04-17T19:39:31.101Z,35.04
2023-04-17T19:41:57.920Z,34.87
2023-04-17T19:44:26.570Z,34.36
2023-04-17T19:46:54.518Z,34.26
2023-04-17T19:49:21.265Z,34.11
2023-04-17T19:51:48.037Z,33.90
2023-04-17T19:54:15.716Z,33.83
2023-04-17T19:56:42.491Z,34.03
2023-04-17T19:59:12.308Z,33.95
2023-04-17T20:01:40.451Z,33.91
2023-04-17T20:04:09.022Z,33.61
2023-04-17T20:06:36.131Z,33.69
2023-04-17T20:09:04.542Z,33.55
2023-04-17T20:11:31.347Z,33.33
2023-04-17T20:13:58.162Z,33.57
2023-04-17T20:16:24.995Z,33.28
2023-04-17T20:18:51.918Z,33.60
2023-04-17T20:21:18.849Z,34.92
2023-04-17T20:23:47.533Z,37.36
2023-04-17T20:26:14.357Z,38.24
2023-04-17T20:28:41.456Z,38.18
2023-04-17T20:31:08.245Z,36.85
2023-04-17T20:33:35.107Z,35.67
2023-04-17T20:36:01.999Z,35.12
2023-04-17T20:38:29.026Z,34.79
2023-04-17T20:40:56.053Z,34.47
2023-04-17T20:43:22.853Z,34.20
2023-04-17T20:45:49.692Z,34.22
2023-04-17T20:48:16.546Z,34.16
2023-04-17T20:50:43.565Z,33.97
2023-04-17T20:53:10.405Z,34.01
2023-04-17T20:55:37.785Z,34.01
2023-04-17T20:58:04.548Z,33.80
2023-04-17T21:00:31.494Z,33.74
2023-04-17T21:02:58.360Z,33.81
2023-04-17T21:05:25.201Z,33.37
2023-04-17T21:07:52.854Z,33.17
2023-04-17T21:10:22.706Z,33.47
2023-04-17T21:12:49.455Z,33.32
2023-04-17T21:15:16.225Z,33.54
2023-04-17T21:17:46.712Z,33.78
2023-04-17T21:20:13.641Z,36.30
2023-04-17T21:22:40.615Z,36.93
2023-04-17T21:25:07.456Z,38.30
2023-04-17T21:27:34.234Z,37.08
2023-04-17T21:30:01.107Z,35.89
2023-04-17T21:32:27.907Z,35.30
2023-04-17T21:34:54.661Z,34.65
2023-04-17T21:37:21.425Z,34.63
2023-04-17T21:39:48.391Z,34.58
2023-04-17T21:42:16.683Z,33.94
2023-04-17T21:44:43.438Z,34.36
2023-04-17T21:47:10.509Z,33.83
2023-04-17T21:49:37.289Z,33.90
2023-04-17T21:52:04.037Z,33.82
2023-04-17T21:54:30.789Z,33.60
2023-04-17T21:56:57.531Z,33.52
2023-04-17T21:59:24.322Z,33.39
2023-04-17T22:01:51.116Z,33.59
2023-04-17T22:04:17.961Z,33.10
2023-04-17T22:06:44.822Z,33.34
2023-04-17T22:09:12.189Z,33.35
2023-04-17T22:11:39.449Z,33.18
2023-04-17T22:14:06.201Z,33.31
2023-04-17T22:16:33.060Z,33.22
2023-04-17T22:18:59.994Z,34.33
2023-04-17T22:21:27.057Z,35.96
2023-04-17T22:23:53.880Z,37.54
2023-04-17T22:26:20.664Z,37.95
2023-04-17T22:28:47.390Z,36.06
2023-04-17T22:31:14.689Z,35.40
2023-04-17T22:33:41.476Z,35.04
2023-04-17T22:36:08.356Z,34.42
2023-04-17T22:38:35.195Z,34.17
2023-04-17T22:41:01.957Z,34.02
2023-04-17T22:43:28.704Z,33.79
2023-04-17T22:45:56.282Z,33.88
2023-04-17T22:48:24.662Z,33.82
2023-04-17T22:50:51.554Z,33.61
2023-04-17T22:53:18.319Z,33.53
2023-04-17T22:55:45.107Z,33.43
2023-04-17T22:58:11.872Z,33.29
2023-04-17T23:00:38.630Z,33.58
2023-04-17T23:03:05.446Z,33.25
2023-04-17T23:05:32.312Z,33.28
2023-04-17T23:07:59.066Z,33.16
2023-04-17T23:10:25.917Z,33.15
2023-04-17T23:12:52.701Z,33.28
2023-04-17T23:15:19.519Z,33.06
2023-04-17T23:17:46.335Z,32.69
2023-04-17T23:20:13.164Z,33.06
2023-04-17T23:22:40.014Z,35.05
2023-04-17T23:25:06.825Z,36.08
2023-04-17T23:27:33.580Z,37.83
2023-04-17T23:30:00.519Z,36.46
2023-04-17T23:32:27.399Z,35.34
2023-04-17T23:34:54.167Z,34.66
2023-04-17T23:37:20.945Z,34.51
2023-04-17T23:39:47.892Z,34.07
2023-04-17T23:42:14.683Z,33.83
2023-04-17T23:44:41.464Z,33.58
2023-04-17T23:47:08.217Z,33.50
2023-04-17T23:49:35.698Z,33.59
2023-04-17T23:52:02.599Z,33.54
2023-04-17T23:54:29.462Z,33.63
2023-04-17T23:56:56.373Z,33.38
2023-04-17T23:59:23.223Z,33.13
